createdAt,value
2023-12-24T12:49:24.156Z,100251.27
2023-12-24T12:51:53.337Z,100250.59
2023-12-24T12:54:21.771Z,100250.79
2023-12-24T12:56:54.166Z,100255.77
2023-12-24T13:01:42.688Z,100273.17
2023-12-24T13:04:10.346Z,100278.62
2023-12-24T13:06:50.048Z,100279.83
2023-12-24T13:09:17.515Z,100290.96
2023-12-24T13:11:45.034Z,100293.36
2023-12-24T13:14:12.622Z,100293.03
2023-12-24T13:16:40.305Z,100298.20
2023-12-24T13:19:21.323Z,100300.98
2023-12-24T13:21:51.631Z,100300.99
2023-12-24T13:24:22.405Z,100299.98
2023-12-24T13:26:49.972Z,100298.62
2023-12-24T13:29:20.420Z,100300.00
2023-12-24T13:31:47.959Z,100305.01
2023-12-24T13:34:16.030Z,100314.63
2023-12-24T13:36:43.671Z,100316.70
2023-12-24T13:39:11.441Z,100320.65
2023-12-24T13:41:38.959Z,100326.66
2023-12-24T13:44:06.574Z,100324.80
2023-12-24T13:46:34.165Z,100324.64
2023-12-24T13:49:01.863Z,100333.05
2023-12-24T13:51:31.142Z,100344.23
2023-12-24T13:54:03.744Z,100348.36
2023-12-24T13:56:33.967Z,100349.04
2023-12-24T13:59:02.519Z,100357.45
2023-12-24T14:01:31.058Z,100361.42
2023-12-24T14:03:58.770Z,100368.98
2023-12-24T14:06:26.405Z,100369.84
2023-12-24T14:08:54.129Z,100374.80
2023-12-24T14:11:21.704Z,100378.57
2023-12-24T14:13:49.661Z,100377.02
2023-12-24T14:16:17.266Z,100384.73
2023-12-24T14:18:44.883Z,100381.83
2023-12-24T14:21:14.380Z,100383.20
2023-12-24T14:23:42.100Z,100383.37
2023-12-24T14:26:09.683Z,100382.16
2023-12-24T14:28:37.181Z,100386.63
2023-12-24T14:31:07.066Z,100386.13
2023-12-24T14:33:37.349Z,100390.06
2023-12-24T14:36:05.595Z,100395.35
2023-12-24T14:38:33.167Z,100400.99
2023-12-24T14:41:00.687Z,100409.05
2023-12-24T14:43:28.172Z,100411.45
2023-12-24T14:45:55.638Z,100416.41
2023-12-24T14:48:23.301Z,100422.91
2023-12-24T14:50:51.486Z,100431.80
2023-12-24T14:53:19.579Z,100438.48
2023-12-24T14:55:47.793Z,100438.98
2023-12-24T14:58:15.346Z,100440.84
2023-12-24T15:00:42.938Z,100438.63
2023-12-24T15:03:11.077Z,100437.73
2023-12-24T15:05:38.816Z,100435.35
2023-12-24T15:08:07.047Z,100431.25
2023-12-24T15:10:34.936Z,100437.23
2023-12-24T15:13:02.506Z,100432.27
2023-12-24T15:15:30.047Z,100432.79
2023-12-24T15:17:57.700Z,100432.77
2023-12-24T15:20:25.369Z,100438.25
2023-12-24T15:22:53.046Z,100446.29
2023-12-24T15:25:20.741Z,100447.33
2023-12-24T15:27:48.230Z,100456.90
2023-12-24T15:30:15.879Z,100461.69
2023-12-24T15:32:43.462Z,100472.29
2023-12-24T15:35:13.305Z,100476.73
2023-12-24T15:37:41.716Z,100477.94
2023-12-24T15:40:09.548Z,100478.10
2023-12-24T15:42:37.088Z,100478.21
2023-12-24T15:45:05.020Z,100481.66
2023-12-24T15:47:32.794Z,100487.29
2023-12-24T15:50:02.729Z,100493.10
2023-12-24T15:52:30.676Z,100497.90
2023-12-24T15:54:58.655Z,100502.33
2023-12-24T15:57:26.364Z,100506.38
2023-12-24T15:59:54.405Z,100511.84
2023-12-24T16:02:22.074Z,100512.69
2023-12-24T16:04:51.191Z,100514.57
2023-12-24T16:07:18.666Z,100522.95
2023-12-24T16:09:46.117Z,100524.98
2023-12-24T16:12:14.485Z,100525.14
2023-12-24T16:14:46.382Z,100525.46
2023-12-24T16:17:14.085Z,100529.35
2023-12-24T16:19:41.656Z,100532.41
2023-12-24T16:22:09.353Z,100535.11
2023-12-24T16:24:40.779Z,100540.03
2023-12-24T16:27:11.352Z,100552.84
2023-12-24T16:29:39.124Z,100549.91
2023-12-24T16:32:07.253Z,100550.08
2023-12-24T16:34:38.568Z,100550.92
2023-12-24T16:37:06.109Z,100551.77
2023-12-24T16:39:33.573Z,100552.77
2023-12-24T16:42:01.107Z,100554.27
2023-12-24T16:44:28.714Z,100555.03
2023-12-24T16:46:56.302Z,100564.58
2023-12-24T16:49:24.455Z,100566.44
2023-12-24T16:51:52.121Z,100568.20
2023-12-24T16:54:21.163Z,100576.58
2023-12-24T16:56:48.893Z,100582.23
2023-12-24T16:59:16.622Z,100585.32
2023-12-24T17:01:45.803Z,100588.23
2023-12-24T17:04:15.250Z,100596.95
2023-12-24T17:06:43.391Z,100601.23
2023-12-24T17:09:11.327Z,100604.14
2023-12-24T17:11:38.924Z,100605.49
2023-12-24T17:14:06.506Z,100603.77
2023-12-24T17:16:33.949Z,100596.07
2023-12-24T17:19:01.755Z,100599.15
2023-12-24T17:21:29.368Z,100599.86
2023-12-24T17:23:57.201Z,100601.94
2023-12-24T17:26:24.921Z,100604.10
2023-12-24T17:28:54.174Z,100604.92
2023-12-24T17:31:21.857Z,100601.82
2023-12-24T17:33:49.487Z,100606.75
2023-12-24T17:36:20.421Z,100611.64
2023-12-24T17:38:48.036Z,100613.30
2023-12-24T17:41:19.586Z,100615.55
2023-12-24T17:43:47.247Z,100623.40
2023-12-24T17:46:14.860Z,100627.14
2023-12-24T17:48:44.085Z,100628.84
2023-12-24T17:51:11.772Z,100630.80
2023-12-24T17:53:39.533Z,100628.52
2023-12-24T17:56:07.224Z,100633.05
2023-12-24T17:58:34.847Z,100625.80
2023-12-24T18:01:02.498Z,100628.90
2023-12-24T18:03:30.701Z,100627.48
2023-12-24T18:05:58.615Z,100623.90
2023-12-24T18:08:26.450Z,100627.91
2023-12-24T18:10:54.605Z,100626.58
2023-12-24T18:13:22.600Z,100629.85
2023-12-24T18:15:50.216Z,100629.20
2023-12-24T18:18:17.894Z,100629.90
2023-12-24T18:20:46.157Z,100631.59
2023-12-24T18:23:13.737Z,100641.17
2023-12-24T18:25:41.322Z,100641.00
2023-12-24T18:28:08.929Z,100640.66
2023-12-24T18:30:37.564Z,100637.35
2023-12-24T18:33:07.426Z,100647.10
2023-12-24T18:35:36.643Z,100648.94
2023-12-24T18:38:07.856Z,100647.90
2023-12-24T18:40:35.520Z,100647.71
2023-12-24T18:43:03.257Z,100650.85
2023-12-24T18:45:30.835Z,100655.46
2023-12-24T18:47:58.712Z,100651.27
2023-12-24T18:50:26.482Z,100656.23
2023-12-24T18:52:54.217Z,100656.71
2023-12-24T18:55:22.113Z,100652.06
2023-12-24T18:57:50.921Z,100651.66
2023-12-24T19:00:19.039Z,100649.32
2023-12-24T19:02:48.033Z,100646.81
2023-12-24T19:05:15.687Z,100643.08
2023-12-24T19:07:43.236Z,100646.85
2023-12-24T19:10:10.798Z,100646.79
2023-12-24T19:12:38.346Z,100648.29
2023-12-24T19:15:06.511Z,100648.60
2023-12-24T19:17:34.349Z,100648.62
2023-12-24T19:20:02.005Z,100644.71
2023-12-24T19:22:30.664Z,100639.67
2023-12-24T19:24:59.579Z,100646.71
2023-12-24T19:27:27.220Z,100643.13
2023-12-24T19:29:55.393Z,100647.10
2023-12-24T19:32:23.167Z,100651.49
2023-12-24T19:34:50.845Z,100653.42
2023-12-24T19:37:18.512Z,100650.67
2023-12-24T19:39:50.314Z,100653.23
2023-12-24T19:42:18.866Z,100653.50
2023-12-24T19:44:46.415Z,100654.23
2023-12-24T19:47:14.049Z,100659.02
2023-12-24T19:49:41.890Z,100664.38
2023-12-24T19:52:09.449Z,100665.25
2023-12-24T19:54:37.507Z,100670.89
2023-12-24T19:57:05.118Z,100666.27
2023-12-24T19:59:32.760Z,100666.01
2023-12-24T20:02:00.322Z,100670.23
2023-12-24T20:04:27.902Z,100668.75
2023-12-24T20:06:55.579Z,100665.20
2023-12-24T20:09:23.137Z,100659.09
2023-12-24T20:11:50.782Z,100658.01
2023-12-24T20:14:18.432Z,100660.13
2023-12-24T20:16:45.988Z,100663.39
2023-12-24T20:19:13.826Z,100661.55
2023-12-24T20:21:41.538Z,100658.45
2023-12-24T20:24:09.065Z,100660.17
2023-12-24T20:26:40.738Z,100657.46
2023-12-24T20:29:09.297Z,100659.67
2023-12-24T20:31:36.946Z,100665.00
2023-12-24T20:34:04.769Z,100669.03
2023-12-24T20:36:32.501Z,100665.45
2023-12-24T20:39:00.168Z,100666.23
2023-12-24T20:41:27.780Z,100659.01
2023-12-24T20:43:55.349Z,100659.88
2023-12-24T20:46:22.876Z,100653.20
2023-12-24T20:48:51.639Z,100658.03
2023-12-24T20:51:19.589Z,100653.39
2023-12-24T20:53:47.101Z,100653.39
2023-12-24T20:56:14.975Z,100650.42
2023-12-24T20:58:42.590Z,100647.35
2023-12-24T21:01:10.900Z,100647.04
2023-12-24T21:03:38.637Z,100640.72
2023-12-24T21:06:06.764Z,100640.52
2023-12-24T21:08:34.436Z,100637.27
2023-12-24T21:11:04.678Z,100637.13
2023-12-24T21:13:32.361Z,100637.48
2023-12-24T21:15:59.847Z,100641.64
2023-12-24T21:18:27.711Z,100638.24
2023-12-24T21:20:59.690Z,100633.30
2023-12-24T21:23:27.494Z,100635.73
2023-12-24T21:25:55.216Z,100632.15
2023-12-24T21:28:22.948Z,100630.64
2023-12-24T21:30:50.512Z,100625.21
2023-12-24T21:33:18.094Z,100630.71
2023-12-24T21:35:46.021Z,100619.23
2023-12-24T21:38:13.624Z,100611.88
2023-12-24T21:40:41.791Z,100612.40
2023-12-24T21:43:09.323Z,100605.89
2023-12-24T21:45:36.914Z,100605.20
2023-12-24T21:48:05.015Z,100605.05
2023-12-24T21:50:32.670Z,100604.22
2023-12-24T21:53:00.179Z,100612.25
2023-12-24T21:55:28.007Z,100616.20
2023-12-24T21:57:55.684Z,100615.73
2023-12-24T22:00:23.410Z,100620.83
2023-12-24T22:02:51.013Z,100624.23
2023-12-24T22:05:18.691Z,100617.38
2023-12-24T22:07:46.418Z,100616.88
2023-12-24T22:10:13.876Z,100612.64
2023-12-24T22:12:41.410Z,100603.44
2023-12-24T22:15:09.233Z,100600.83
2023-12-24T22:17:36.923Z,100591.23
2023-12-24T22:20:05.034Z,100581.33
2023-12-24T22:22:32.539Z,100572.10
2023-12-24T22:25:00.083Z,100570.23
2023-12-24T22:27:27.581Z,100561.86
2023-12-24T22:29:55.288Z,100557.59
2023-12-24T22:32:22.894Z,100558.29
2023-12-24T22:34:50.491Z,100551.95
2023-12-24T22:37:18.008Z,100540.16
2023-12-24T22:39:45.475Z,100531.60
2023-12-24T22:42:12.961Z,100528.17
2023-12-24T22:44:43.597Z,100533.66
2023-12-24T22:47:11.063Z,100536.23
2023-12-24T22:49:38.628Z,100531.10
2023-12-24T22:52:06.484Z,100529.55
2023-12-24T22:54:33.922Z,100534.17
2023-12-24T22:57:01.402Z,100530.41
2023-12-24T22:59:29.090Z,100527.33
2023-12-24T23:01:57.631Z,100526.81
2023-12-24T23:04:25.062Z,100531.27
2023-12-24T23:06:52.689Z,100528.18
2023-12-24T23:09:20.197Z,100531.10
2023-12-24T23:11:47.747Z,100527.49
2023-12-24T23:14:15.342Z,100533.15
2023-12-24T23:16:42.851Z,100534.69
2023-12-24T23:19:10.398Z,100533.33
2023-12-24T23:21:37.975Z,100528.86
2023-12-24T23:24:05.606Z,100528.01
2023-12-24T23:26:33.080Z,100517.90
2023-12-24T23:29:00.548Z,100513.10
2023-12-24T23:31:28.153Z,100514.46
2023-12-24T23:33:55.750Z,100509.15
2023-12-24T23:36:23.612Z,100497.84
2023-12-24T23:38:51.142Z,100504.01
2023-12-24T23:41:18.648Z,100502.94
2023-12-24T23:43:46.159Z,100505.34
2023-12-24T23:46:13.639Z,100499.84
2023-12-24T23:48:41.411Z,100488.02
2023-12-24T23:51:09.105Z,100481.17
2023-12-24T23:53:36.706Z,100479.48
2023-12-24T23:56:11.835Z,100480.79
2023-12-24T23:58:39.777Z,100488.32
